Time;durP1;ratioP1;P1;durP2;ratioP2;P2;SDS_P1;SDS_P2;PMS_P1;PMS_P2;Temp;Humidity;BMP_temperature;BMP_pressure;BME280_temperature;BME280_humidity;BME280_pressure;Samples;Min_cycle;Max_cycle;Signal;HPM_P1;HPM_P2
2022/08/01 00:02:21;;;;;;;26.90;14.75;;;;;;;;;;5041387;28;20063;-85
2022/08/01 00:04:46;;;;;;;24.98;14.05;;;;;;;;;;5049250;28;20482;-85
2022/08/01 00:07:11;;;;;;;22.08;13.40;;;;;;;;;;5041136;28;20059;-86
2022/08/01 00:09:37;;;;;;;26.65;14.32;;;;;;;;;;5034912;28;20119;-86
2022/08/01 00:12:04;;;;;;;22.30;13.70;;;;;;;;;;5014289;28;20020;-86
2022/08/01 00:14:30;;;;;;;23.67;14.13;;;;;;;;;;5045519;28;20020;-86
2022/08/01 00:16:55;;;;;;;20.58;13.18;;;;;;;;;;5027256;28;20447;-85
2022/08/01 00:19:20;;;;;;;21.02;12.48;;;;;;;;;;5059359;28;20115;-85
2022/08/01 00:21:46;;;;;;;21.70;13.25;;;;;;;;;;5041981;28;20050;-85
2022/08/01 00:24:11;;;;;;;19.80;11.70;;;;;;;;;;5056998;28;20414;-86
2022/08/01 00:26:36;;;;;;;20.15;11.38;;;;;;;;;;5031826;28;20076;-86
2022/08/01 00:29:02;;;;;;;20.48;11.63;;;;;;;;;;5037515;28;20033;-86
2022/08/01 00:31:27;;;;;;;19.33;12.07;;;;;;;;;;5038148;28;20063;-86
2022/08/01 00:33:53;;;;;;;20.05;13.50;;;;;;;;;;5034633;28;20064;-86
2022/08/01 00:36:18;;;;;;;23.05;12.90;;;;;;;;;;5038686;28;20048;-85
2022/08/01 00:38:43;;;;;;;18.83;12.75;;;;;;;;;;5028570;28;20177;-85
2022/08/01 00:41:09;;;;;;;18.77;12.63;;;;;;;;;;5035523;28;20059;-84
2022/08/01 00:43:34;;;;;;;22.02;13.95;;;;;;;;;;5040067;28;20523;-85
2022/08/01 00:45:59;;;;;;;20.15;14.70;;;;;;;;;;5062267;28;20112;-85
2022/08/01 00:48:25;;;;;;;24.05;15.25;;;;;;;;;;5021063;28;20120;-85
2022/08/01 00:50:50;;;;;;;27.35;15.35;;;;;;;;;;5039819;28;20500;-85
2022/08/01 00:53:15;;;;;;;23.83;15.15;;;;;;;;;;5049578;28;20061;-84
2022/08/01 00:55:41;;;;;;;21.80;14.60;;;;;;;;;;5032589;28;20048;-84
2022/08/01 00:58:06;;;;;;;24.70;15.43;;;;;;;;;;5020293;28;20052;-84
2022/08/01 01:00:33;;;;;;;27.02;16.75;;;;;;;;;;5020202;28;20056;-84
2022/08/01 01:02:58;;;;;;;24.95;17.27;;;;;;;;;;5046835;28;20054;-84
2022/08/01 01:05:23;;;;;;;23.30;15.50;;;;;;;;;;5055801;28;20547;-84
2022/08/01 01:08:08;;;;;;;25.13;15.60;;;;;;;;;;5039615;28;20135;-84
2022/08/01 01:10:53;;;;;;;28.77;17.08;;;;;;;;;;5051043;28;20073;-84
2022/08/01 01:13:32;;;;;;;27.85;16.42;;;;;;;;;;5031918;28;20042;-84
2022/08/01 01:16:14;;;;;;;24.95;15.25;;;;;;;;;;5076040;28;20455;-84
2022/08/01 01:18:56;;;;;;;23.40;15.00;;;;;;;;;;5019180;28;20039;-84
2022/08/01 01:21:21;;;;;;;27.60;16.88;;;;;;;;;;5041239;28;20028;-84
2022/08/01 01:24:27;;;;;;;25.08;14.77;;;;;;;;;;5061329;28;20451;-84
2022/08/01 01:27:06;;;;;;;23.27;14.80;;;;;;;;;;5036900;28;20527;-84
2022/08/01 01:29:37;;;;;;;23.73;14.40;;;;;;;;;;5031722;28;20029;-85
2022/08/01 01:32:18;;;;;;;26.85;14.82;;;;;;;;;;5020062;28;20443;-85
2022/08/01 01:34:44;;;;;;;24.15;15.30;;;;;;;;;;5062804;28;20051;-84
2022/08/01 01:37:13;;;;;;;24.98;15.57;;;;;;;;;;5027801;28;20025;-84
2022/08/01 01:39:38;;;;;;;23.55;14.40;;;;;;;;;;5031552;28;20107;-84
2022/08/01 01:42:07;;;;;;;26.20;15.00;;;;;;;;;;5013846;28;20441;-84
2022/08/01 01:44:33;;;;;;;29.73;15.63;;;;;;;;;;5018883;28;20546;-84
2022/08/01 01:46:58;;;;;;;23.50;15.27;;;;;;;;;;5025864;28;20024;-84
2022/08/01 01:49:24;;;;;;;24.52;15.15;;;;;;;;;;5016944;28;20064;-84
2022/08/01 01:51:50;;;;;;;23.85;14.68;;;;;;;;;;5033360;28;20032;-84
2022/08/01 01:54:16;;;;;;;22.77;15.18;;;;;;;;;;5033276;28;20029;-84
2022/08/01 01:56:48;;;;;;;23.88;15.85;;;;;;;;;;5057258;28;20095;-84
2022/08/01 01:59:15;;;;;;;24.83;14.73;;;;;;;;;;5030134;28;20025;-84
2022/08/01 02:01:40;;;;;;;22.35;15.32;;;;;;;;;;5031929;28;20036;-84
2022/08/01 02:04:06;;;;;;;25.50;15.60;;;;;;;;;;5049591;28;20057;-84
2022/08/01 02:06:32;;;;;;;24.13;15.23;;;;;;;;;;5012705;28;20136;-84
2022/08/01 02:08:57;;;;;;;23.63;14.13;;;;;;;;;;5040607;28;20112;-84
2022/08/01 02:11:22;;;;;;;21.92;15.77;;;;;;;;;;5060154;28;20064;-84
2022/08/01 02:14:02;;;;;;;20.88;14.90;;;;;;;;;;5015906;28;20499;-84
2022/08/01 02:16:37;;;;;;;26.63;15.60;;;;;;;;;;5018710;28;20430;-84
2022/08/01 02:19:02;;;;;;;23.75;15.45;;;;;;;;;;5015062;28;20456;-84
2022/08/01 02:21:29;;;;;;;20.85;14.95;;;;;;;;;;5037634;28;20028;-84
2022/08/01 02:23:55;;;;;;;23.52;15.43;;;;;;;;;;5034233;28;20057;-84
2022/08/01 02:26:21;;;;;;;29.75;15.93;;;;;;;;;;5039092;28;20051;-84
2022/08/01 02:28:53;;;;;;;23.20;14.85;;;;;;;;;;5024975;28;20485;-84
2022/08/01 02:31:20;;;;;;;21.10;13.63;;;;;;;;;;5051855;28;20472;-85
2022/08/01 02:33:47;;;;;;;29.00;14.82;;;;;;;;;;5044614;28;20422;-85
2022/08/01 02:36:13;;;;;;;22.58;14.57;;;;;;;;;;5044733;28;20060;-85
2022/08/01 02:38:41;;;;;;;23.10;15.10;;;;;;;;;;5055986;28;20105;-86
2022/08/01 02:41:08;;;;;;;25.67;15.60;;;;;;;;;;5039385;28;20513;-86
2022/08/01 02:43:34;;;;;;;30.40;15.68;;;;;;;;;;5033032;28;20021;-86
2022/08/01 02:46:00;;;;;;;18.92;13.77;;;;;;;;;;5036479;28;20030;-86
2022/08/01 02:48:25;;;;;;;23.30;14.85;;;;;;;;;;5035345;28;20036;-87
2022/08/01 02:50:51;;;;;;;27.92;16.27;;;;;;;;;;5033230;28;20033;-87
2022/08/01 02:53:18;;;;;;;24.35;15.18;;;;;;;;;;5019838;28;20029;-87
2022/08/01 02:55:44;;;;;;;28.55;14.85;;;;;;;;;;5018862;28;20036;-86
2022/08/01 02:58:10;;;;;;;18.73;13.48;;;;;;;;;;5035011;28;20033;-86
2022/08/01 03:00:35;;;;;;;21.65;14.07;;;;;;;;;;5035150;28;20427;-86
2022/08/01 03:03:01;;;;;;;23.70;14.23;;;;;;;;;;5033715;28;20508;-86
2022/08/01 03:05:26;;;;;;;23.70;14.70;;;;;;;;;;5044444;28;20063;-86
2022/08/01 03:07:52;;;;;;;17.00;12.05;;;;;;;;;;5024612;28;20056;-87
2022/08/01 03:10:18;;;;;;;18.48;12.75;;;;;;;;;;5038522;28;20514;-87
2022/08/01 03:12:43;;;;;;;16.60;11.45;;;;;;;;;;5047936;28;20033;-87
2022/08/01 03:15:09;;;;;;;15.85;10.70;;;;;;;;;;5054272;28;20498;-87
2022/08/01 03:17:35;;;;;;;18.45;11.35;;;;;;;;;;5033996;28;20040;-86
2022/08/01 03:20:02;;;;;;;17.63;9.73;;;;;;;;;;5023397;28;20162;-86
2022/08/01 03:22:27;;;;;;;16.52;10.15;;;;;;;;;;5019610;28;20484;-86
2022/08/01 03:24:53;;;;;;;13.30;10.30;;;;;;;;;;5040803;28;20051;-85
2022/08/01 03:27:22;;;;;;;16.45;10.32;;;;;;;;;;5002020;28;20156;-86
2022/08/01 03:29:48;;;;;;;16.75;9.70;;;;;;;;;;5054370;28;20029;-86
2022/08/01 03:32:14;;;;;;;16.48;10.25;;;;;;;;;;5020259;28;20530;-86
2022/08/01 03:34:40;;;;;;;16.55;10.52;;;;;;;;;;5029127;28;20116;-85
2022/08/01 03:37:14;;;;;;;13.50;9.45;;;;;;;;;;5046958;28;20479;-85
2022/08/01 03:39:47;;;;;;;13.57;9.90;;;;;;;;;;5053386;28;20017;-85
2022/08/01 03:42:15;;;;;;;14.13;10.18;;;;;;;;;;5024552;28;20498;-85
2022/08/01 03:44:41;;;;;;;15.70;9.73;;;;;;;;;;5043828;28;20037;-85
2022/08/01 03:47:08;;;;;;;13.73;9.65;;;;;;;;;;5037351;28;20020;-85
2022/08/01 03:49:37;;;;;;;14.45;9.80;;;;;;;;;;5025898;28;20039;-85
2022/08/01 03:52:04;;;;;;;18.05;11.02;;;;;;;;;;5047505;28;20233;-85
2022/08/01 03:54:33;;;;;;;14.45;10.00;;;;;;;;;;5038215;28;20029;-85
2022/08/01 03:56:58;;;;;;;15.50;10.93;;;;;;;;;;5027189;28;20017;-85
2022/08/01 03:59:24;;;;;;;17.35;11.20;;;;;;;;;;5025200;28;20024;-87
2022/08/01 04:01:49;;;;;;;16.90;11.98;;;;;;;;;;5029157;28;20067;-87
2022/08/01 04:04:15;;;;;;;17.80;11.30;;;;;;;;;;5045906;28;20044;-88
2022/08/01 04:06:40;;;;;;;14.40;11.38;;;;;;;;;;5019212;28;20143;-87
2022/08/01 04:09:09;;;;;;;15.80;11.68;;;;;;;;;;5017747;28;20457;-87
2022/08/01 04:11:34;;;;;;;21.30;12.02;;;;;;;;;;5032438;28;20034;-87
2022/08/01 04:13:59;;;;;;;19.73;13.52;;;;;;;;;;5018698;28;20495;-85
2022/08/01 04:16:25;;;;;;;21.60;12.52;;;;;;;;;;5028306;28;20061;-88
2022/08/01 04:18:50;;;;;;;20.73;13.48;;;;;;;;;;5027683;28;20033;-86
2022/08/01 04:21:18;;;;;;;18.73;13.00;;;;;;;;;;5038295;28;20025;-86
2022/08/01 04:23:43;;;;;;;18.77;13.70;;;;;;;;;;5027632;28;20115;-86
2022/08/01 04:26:09;;;;;;;20.48;13.70;;;;;;;;;;5010382;28;20029;-86
2022/08/01 04:28:34;;;;;;;16.73;12.27;;;;;;;;;;5013629;28;20032;-86
2022/08/01 04:31:00;;;;;;;20.02;12.05;;;;;;;;;;5024717;28;20396;-86
2022/08/01 04:33:25;;;;;;;21.13;11.25;;;;;;;;;;5021488;28;20034;-86
2022/08/01 04:35:51;;;;;;;17.75;12.35;;;;;;;;;;5033010;28;20477;-85
2022/08/01 04:38:20;;;;;;;20.08;11.80;;;;;;;;;;5059033;28;20178;-85
2022/08/01 04:40:46;;;;;;;20.77;10.23;;;;;;;;;;5042768;28;20037;-86
2022/08/01 04:43:11;;;;;;;14.07;10.55;;;;;;;;;;5032462;28;20400;-86
2022/08/01 04:45:37;;;;;;;12.07;8.98;;;;;;;;;;5028107;28;20361;-85
2022/08/01 04:48:06;;;;;;;17.45;10.18;;;;;;;;;;5020744;28;20075;-84
2022/08/01 04:50:31;;;;;;;15.25;8.30;;;;;;;;;;5020492;28;20020;-84
2022/08/01 04:52:57;;;;;;;13.88;8.93;;;;;;;;;;5037898;28;20025;-84
2022/08/01 04:55:22;;;;;;;18.83;10.20;;;;;;;;;;5003087;28;20040;-82
2022/08/01 04:57:47;;;;;;;11.50;8.65;;;;;;;;;;5061509;28;20546;-83
2022/08/01 05:00:13;;;;;;;13.60;9.90;;;;;;;;;;5040195;28;20033;-83
2022/08/01 05:02:39;;;;;;;18.40;9.57;;;;;;;;;;5056621;28;20080;-83
2022/08/01 05:05:05;;;;;;;17.80;10.05;;;;;;;;;;5014451;28;20040;-83
2022/08/01 05:07:31;;;;;;;11.70;9.10;;;;;;;;;;5038909;28;20329;-83
2022/08/01 05:09:57;;;;;;;14.98;8.30;;;;;;;;;;5037378;28;20384;-83
2022/08/01 05:12:22;;;;;;;17.45;8.80;;;;;;;;;;5030881;28;20112;-83
2022/08/01 05:14:47;;;;;;;18.08;9.00;;;;;;;;;;5068154;28;20029;-83
2022/08/01 05:17:13;;;;;;;22.48;8.95;;;;;;;;;;5024475;28;20057;-83
2022/08/01 05:19:39;;;;;;;12.88;7.93;;;;;;;;;;5044094;28;20028;-83
2022/08/01 05:22:06;;;;;;;15.55;7.80;;;;;;;;;;5047592;28;20035;-83
2022/08/01 05:24:32;;;;;;;13.77;7.43;;;;;;;;;;5043451;28;20059;-84
2022/08/01 05:26:58;;;;;;;15.60;7.95;;;;;;;;;;5015365;28;20048;-83
2022/08/01 05:29:24;;;;;;;12.38;6.95;;;;;;;;;;5013494;28;20037;-72
2022/08/01 05:31:49;;;;;;;15.43;6.53;;;;;;;;;;5045928;28;20083;-72
2022/08/01 05:34:15;;;;;;;11.30;5.50;;;;;;;;;;5026212;28;20522;-72
2022/08/01 05:36:40;;;;;;;12.82;6.55;;;;;;;;;;5041263;28;20526;-72
2022/08/01 05:39:08;;;;;;;11.68;6.35;;;;;;;;;;4779888;28;10001200;-73
2022/08/01 05:41:36;;;;;;;13.75;6.38;;;;;;;;;;4484062;28;10000446;-73
2022/08/01 05:44:01;;;;;;;12.95;6.07;;;;;;;;;;5002253;28;20034;-73
2022/08/01 05:46:26;;;;;;;14.95;6.72;;;;;;;;;;5008551;28;20040;-73
2022/08/01 05:48:52;;;;;;;14.02;6.30;;;;;;;;;;4999321;28;20054;-73
2022/08/01 05:51:17;;;;;;;10.35;5.22;;;;;;;;;;5005645;28;20092;-73
2022/08/01 05:53:42;;;;;;;16.73;6.13;;;;;;;;;;5005753;28;20046;-73
2022/08/01 05:56:08;;;;;;;13.40;5.40;;;;;;;;;;5015481;28;20060;-73
2022/08/01 05:58:33;;;;;;;16.23;5.47;;;;;;;;;;5017655;28;20481;-73
2022/08/01 06:00:58;;;;;;;10.82;4.72;;;;;;;;;;5010468;28;20057;-73
2022/08/01 06:03:24;;;;;;;14.52;4.85;;;;;;;;;;5010893;28;20041;-73
2022/08/01 06:05:51;;;;;;;12.50;5.15;;;;;;;;;;5011184;28;20500;-73
2022/08/01 06:08:16;;;;;;;10.10;4.55;;;;;;;;;;5010724;28;20034;-73
2022/08/01 06:10:42;;;;;;;17.65;5.25;;;;;;;;;;5012431;28;20473;-72
2022/08/01 06:13:07;;;;;;;11.15;4.82;;;;;;;;;;5012311;28;20092;-72
2022/08/01 06:15:33;;;;;;;15.10;4.55;;;;;;;;;;5010112;28;20488;-72
2022/08/01 06:17:58;;;;;;;12.05;4.38;;;;;;;;;;5011666;28;20061;-72
2022/08/01 06:20:23;;;;;;;18.95;4.97;;;;;;;;;;5025509;28;20053;-73
2022/08/01 06:22:51;;;;;;;12.75;4.78;;;;;;;;;;5011414;28;20025;-73
2022/08/01 06:25:17;;;;;;;16.27;5.03;;;;;;;;;;5030553;28;20048;-73
2022/08/01 06:27:42;;;;;;;15.88;5.38;;;;;;;;;;5032233;28;20029;-73
2022/08/01 06:30:08;;;;;;;18.45;5.75;;;;;;;;;;5029246;28;20127;-72
2022/08/01 06:32:34;;;;;;;15.32;5.50;;;;;;;;;;5047371;28;20029;-72
2022/08/01 06:40:10;;;;;;;14.15;4.10;;;;;;;;;;4813790;26;20046;-85
2022/08/01 06:42:36;;;;;;;20.20;4.97;;;;;;;;;;4928418;28;20089;-85
2022/08/01 06:45:03;;;;;;;20.23;4.25;;;;;;;;;;4967466;28;20031;-84
2022/08/01 06:47:29;;;;;;;14.73;4.47;;;;;;;;;;4918239;28;20037;-85
2022/08/01 06:49:54;;;;;;;18.88;4.50;;;;;;;;;;4963834;28;20031;-84
2022/08/01 06:52:19;;;;;;;21.33;4.53;;;;;;;;;;4969600;28;20073;-85
2022/08/01 06:54:45;;;;;;;17.65;5.13;;;;;;;;;;4955249;28;20189;-84
2022/08/01 06:57:10;;;;;;;15.80;4.93;;;;;;;;;;4953336;28;20537;-85
2022/08/01 06:59:35;;;;;;;14.68;4.07;;;;;;;;;;4952693;28;20058;-84
2022/08/01 07:02:01;;;;;;;19.67;4.50;;;;;;;;;;4952718;28;20046;-84
2022/08/01 07:04:26;;;;;;;12.25;4.70;;;;;;;;;;4939609;28;20054;-84
2022/08/01 07:06:52;;;;;;;19.65;5.10;;;;;;;;;;4946673;28;20111;-85
2022/08/01 07:09:17;;;;;;;16.73;5.07;;;;;;;;;;4941400;28;20034;-85
2022/08/01 07:11:42;;;;;;;23.13;5.53;;;;;;;;;;4958018;28;20045;-85
2022/08/01 07:14:08;;;;;;;21.83;5.47;;;;;;;;;;4957866;28;20069;-86
2022/08/01 07:16:33;;;;;;;26.48;5.43;;;;;;;;;;4957221;28;20029;-84
2022/08/01 07:18:59;;;;;;;19.83;4.82;;;;;;;;;;4956093;28;20073;-85
2022/08/01 07:21:24;;;;;;;25.65;5.57;;;;;;;;;;4973685;28;20085;-85
2022/08/01 07:23:49;;;;;;;17.52;4.90;;;;;;;;;;4965842;28;20130;-85
2022/08/01 07:26:15;;;;;;;20.00;4.82;;;;;;;;;;4932674;28;20479;-86
2022/08/01 07:28:40;;;;;;;16.80;5.30;;;;;;;;;;4973265;28;20058;-86
2022/08/01 07:31:05;;;;;;;21.20;4.70;;;;;;;;;;4958219;28;20115;-84
2022/08/01 07:33:31;;;;;;;21.20;5.10;;;;;;;;;;4955862;28;20169;-86
2022/08/01 07:35:56;;;;;;;21.13;5.60;;;;;;;;;;4941015;28;20026;-85
2022/08/01 07:38:22;;;;;;;19.63;5.07;;;;;;;;;;4974305;28;20062;-86
2022/08/01 07:40:47;;;;;;;19.15;4.75;;;;;;;;;;4956774;28;20062;-85
2022/08/01 07:43:12;;;;;;;20.70;5.18;;;;;;;;;;4957233;28;20038;-85
2022/08/01 07:45:38;;;;;;;22.90;5.20;;;;;;;;;;4957182;28;20053;-85
2022/08/01 07:48:04;;;;;;;18.50;5.28;;;;;;;;;;4972208;28;20035;-85
2022/08/01 07:50:29;;;;;;;19.45;4.82;;;;;;;;;;4973140;28;20039;-85
2022/08/01 07:52:55;;;;;;;24.48;5.75;;;;;;;;;;4941389;28;20066;-85
2022/08/01 07:55:20;;;;;;;24.23;4.95;;;;;;;;;;4972766;28;20475;-85
2022/08/01 07:57:46;;;;;;;17.92;5.32;;;;;;;;;;4939988;28;20086;-86
2022/08/01 08:00:11;;;;;;;14.65;4.53;;;;;;;;;;4973673;28;20089;-85
2022/08/01 08:02:37;;;;;;;12.68;4.30;;;;;;;;;;4940088;28;20043;-85
2022/08/01 08:05:03;;;;;;;19.60;4.82;;;;;;;;;;4973596;28;20119;-85
2022/08/01 08:07:29;;;;;;;24.05;5.55;;;;;;;;;;4956688;28;20060;-86
2022/08/01 08:09:54;;;;;;;18.55;4.78;;;;;;;;;;4955825;28;20027;-85
2022/08/01 08:12:20;;;;;;;21.13;5.10;;;;;;;;;;4972419;28;20037;-85
2022/08/01 08:14:45;;;;;;;17.23;4.07;;;;;;;;;;4940506;28;20042;-85
2022/08/01 08:17:10;;;;;;;27.35;4.72;;;;;;;;;;4955221;28;20030;-85
2022/08/01 08:19:38;;;;;;;19.08;4.60;;;;;;;;;;4955821;28;20050;-85
2022/08/01 08:22:03;;;;;;;17.50;3.42;;;;;;;;;;4955689;28;20113;-86
2022/08/01 08:24:29;;;;;;;20.77;4.32;;;;;;;;;;4955710;28;20142;-85
2022/08/01 08:26:57;;;;;;;24.02;4.63;;;;;;;;;;4939452;28;20055;-85
2022/08/01 08:29:22;;;;;;;19.90;3.88;;;;;;;;;;4971318;28;20405;-85
2022/08/01 08:31:48;;;;;;;17.80;3.67;;;;;;;;;;4955252;28;20058;-85
2022/08/01 08:34:14;;;;;;;19.50;4.40;;;;;;;;;;4955495;28;20342;-85
2022/08/01 08:36:39;;;;;;;15.00;4.05;;;;;;;;;;4954527;28;20118;-85
2022/08/01 08:39:04;;;;;;;12.68;3.63;;;;;;;;;;4955387;28;20049;-85
2022/08/01 08:41:31;;;;;;;11.95;2.65;;;;;;;;;;4955067;28;20039;-85
2022/08/01 08:43:58;;;;;;;13.35;3.33;;;;;;;;;;4938105;28;20035;-85
2022/08/01 08:46:25;;;;;;;12.02;3.28;;;;;;;;;;4955038;28;20501;-85
2022/08/01 08:48:51;;;;;;;17.45;3.83;;;;;;;;;;4954210;28;20046;-83
2022/08/01 08:51:16;;;;;;;19.02;3.75;;;;;;;;;;4954078;28;20026;-85
2022/08/01 08:53:43;;;;;;;22.23;3.95;;;;;;;;;;4951804;28;20031;-84
2022/08/01 08:56:09;;;;;;;17.98;3.70;;;;;;;;;;4955480;28;20019;-85
2022/08/01 08:58:37;;;;;;;18.17;2.83;;;;;;;;;;4938377;28;20062;-84
2022/08/01 09:01:05;;;;;;;12.68;3.60;;;;;;;;;;4954696;28;20034;-84
2022/08/01 09:03:30;;;;;;;17.90;4.38;;;;;;;;;;4955152;28;20501;-84
2022/08/01 09:05:55;;;;;;;9.73;2.58;;;;;;;;;;4938403;28;20031;-84
2022/08/01 09:08:21;;;;;;;14.68;2.97;;;;;;;;;;4939750;28;20077;-84
2022/08/01 09:10:47;;;;;;;16.02;3.05;;;;;;;;;;4954645;28;20511;-84
2022/08/01 09:13:13;;;;;;;15.68;3.17;;;;;;;;;;4971209;28;20126;-84
2022/08/01 09:15:43;;;;;;;20.65;3.65;;;;;;;;;;4938403;28;20023;-84
2022/08/01 09:18:09;;;;;;;8.73;2.75;;;;;;;;;;4938504;28;20085;-84
2022/08/01 09:20:35;;;;;;;15.75;2.75;;;;;;;;;;4966912;28;20478;-84
2022/08/01 09:23:01;;;;;;;13.60;2.92;;;;;;;;;;4936744;28;20031;-82
2022/08/01 09:25:32;;;;;;;20.30;4.43;;;;;;;;;;4954785;28;20061;-83
2022/08/01 09:28:05;;;;;;;17.27;3.78;;;;;;;;;;4955358;28;20039;-83
2022/08/01 09:30:36;;;;;;;13.98;3.45;;;;;;;;;;4967221;28;20054;-83
2022/08/01 09:33:03;;;;;;;11.32;3.17;;;;;;;;;;4968975;28;20518;-83
2022/08/01 09:35:34;;;;;;;15.60;3.35;;;;;;;;;;4955904;28;20045;-82
2022/08/01 09:38:13;;;;;;;13.90;3.42;;;;;;;;;;4953274;28;20130;-83
2022/08/01 09:40:45;;;;;;;11.48;2.85;;;;;;;;;;4970079;28;20051;-82
2022/08/01 09:43:12;;;;;;;12.50;2.63;;;;;;;;;;4967845;28;20078;-82
2022/08/01 09:45:37;;;;;;;20.80;3.75;;;;;;;;;;4956652;28;20041;-82
2022/08/01 09:48:07;;;;;;;15.82;2.95;;;;;;;;;;4955759;28;20031;-82
2022/08/01 09:50:41;;;;;;;14.30;2.90;;;;;;;;;;4943660;28;20459;-82
2022/08/01 09:53:06;;;;;;;15.13;2.75;;;;;;;;;;4970108;28;20472;-82
2022/08/01 09:55:31;;;;;;;13.43;3.17;;;;;;;;;;4970126;28;20043;-82
2022/08/01 09:58:00;;;;;;;16.88;2.88;;;;;;;;;;4950716;28;20177;-82
2022/08/01 10:00:25;;;;;;;12.63;3.13;;;;;;;;;;4966548;28;20086;-82
2022/08/01 10:02:51;;;;;;;14.73;2.83;;;;;;;;;;4938754;28;20126;-83
2022/08/01 10:05:16;;;;;;;21.23;3.38;;;;;;;;;;4940010;28;20566;-82
2022/08/01 10:08:03;;;;;;;15.45;3.25;;;;;;;;;;4938435;28;20121;-81
2022/08/01 10:10:29;;;;;;;13.80;2.83;;;;;;;;;;4965858;28;20095;-83
2022/08/01 10:12:55;;;;;;;15.30;3.05;;;;;;;;;;4916557;28;20022;-82
2022/08/01 10:15:20;;;;;;;10.57;2.80;;;;;;;;;;4932204;28;20055;-82
2022/08/01 10:17:51;;;;;;;13.35;2.47;;;;;;;;;;4921361;28;20038;-82
2022/08/01 10:20:19;;;;;;;10.90;2.25;;;;;;;;;;4939343;28;20038;-83
2022/08/01 10:22:44;;;;;;;10.48;2.40;;;;;;;;;;4947527;29;20027;-83
2022/08/01 10:25:11;;;;;;;12.18;2.50;;;;;;;;;;4972454;28;20590;-83
2022/08/01 10:27:37;;;;;;;8.70;2.00;;;;;;;;;;4957009;28;20033;-83
2022/08/01 10:30:03;;;;;;;7.68;2.03;;;;;;;;;;4955625;28;20543;-83
2022/08/01 10:32:32;;;;;;;10.60;2.70;;;;;;;;;;4956079;28;20422;-83
2022/08/01 10:34:58;;;;;;;11.90;2.45;;;;;;;;;;4941649;28;20035;-83
2022/08/01 10:37:24;;;;;;;10.50;1.98;;;;;;;;;;4954903;28;20031;-83
2022/08/01 10:39:53;;;;;;;9.80;2.72;;;;;;;;;;4938962;28;20141;-83
2022/08/01 10:42:18;;;;;;;10.55;2.50;;;;;;;;;;4951371;28;20039;-82
2022/08/01 10:44:47;;;;;;;11.65;2.50;;;;;;;;;;4970545;28;20086;-82
2022/08/01 10:47:13;;;;;;;8.93;2.47;;;;;;;;;;4955298;28;20034;-83
2022/08/01 10:49:40;;;;;;;12.38;2.63;;;;;;;;;;4970255;28;20509;-82
2022/08/01 11:32:56;;;;;;;11.32;2.58;;;;;;;;;;4929804;29;20039;-83
2022/08/01 11:35:26;;;;;;;10.43;2.30;;;;;;;;;;4896580;29;20084;-83
2022/08/01 11:37:55;;;;;;;9.57;2.03;;;;;;;;;;4908444;29;20518;-84
2022/08/01 11:40:27;;;;;;;11.10;2.30;;;;;;;;;;4912961;29;20052;-83
2022/08/01 11:43:13;;;;;;;12.18;2.35;;;;;;;;;;4911952;29;20531;-83
2022/08/01 11:45:55;;;;;;;6.63;1.40;;;;;;;;;;4934667;29;20065;-83
2022/08/01 11:48:24;;;;;;;8.20;2.50;;;;;;;;;;4895754;29;20275;-83
2022/08/01 11:50:50;;;;;;;8.88;1.80;;;;;;;;;;4896100;29;20038;-83
2022/08/01 11:53:16;;;;;;;7.85;1.92;;;;;;;;;;4911013;29;20051;-83
2022/08/01 11:55:52;;;;;;;10.40;2.40;;;;;;;;;;4900870;29;20102;-83
2022/08/01 11:58:22;;;;;;;7.00;2.00;;;;;;;;;;4899671;29;20039;-83
2022/08/01 12:00:53;;;;;;;8.23;2.47;;;;;;;;;;4919308;29;20086;-85
2022/08/01 12:03:27;;;;;;;10.38;1.75;;;;;;;;;;4918752;28;20467;-83
2022/08/01 12:05:52;;;;;;;9.05;2.15;;;;;;;;;;4937820;28;20490;-83
2022/08/01 12:08:27;;;;;;;8.50;1.83;;;;;;;;;;4938601;28;20031;-83
2022/08/01 12:10:53;;;;;;;4.90;1.73;;;;;;;;;;4938118;28;20729;-83
2022/08/01 12:13:19;;;;;;;7.40;1.75;;;;;;;;;;4955150;28;20144;-83
2022/08/01 12:15:45;;;;;;;7.53;2.30;;;;;;;;;;4954286;28;20391;-83
2022/08/01 12:18:10;;;;;;;7.05;1.52;;;;;;;;;;4937835;28;20019;-82
2022/08/01 12:20:40;;;;;;;6.40;1.63;;;;;;;;;;4954995;28;20043;-83
2022/08/01 12:23:10;;;;;;;5.80;1.73;;;;;;;;;;4954955;28;20034;-83
2022/08/01 12:25:36;;;;;;;6.40;2.00;;;;;;;;;;4970377;28;20045;-84
2022/08/01 12:28:06;;;;;;;7.38;1.88;;;;;;;;;;4970486;28;20137;-83
2022/08/01 12:30:34;;;;;;;7.53;2.40;;;;;;;;;;4955011;28;20030;-83
2022/08/01 12:33:00;;;;;;;7.45;1.95;;;;;;;;;;4946479;28;20069;-83
2022/08/01 12:35:26;;;;;;;13.38;2.55;;;;;;;;;;4926458;28;20026;-83
2022/08/01 12:38:13;;;;;;;6.88;1.52;;;;;;;;;;4937132;28;20500;-85
2022/08/01 12:40:40;;;;;;;10.50;1.65;;;;;;;;;;4939024;28;20059;-84
2022/08/01 12:43:07;;;;;;;7.35;2.03;;;;;;;;;;4951109;28;20804;-85
2022/08/01 12:45:32;;;;;;;11.68;2.38;;;;;;;;;;4937500;28;20031;-85
2022/08/01 12:47:59;;;;;;;9.02;2.28;;;;;;;;;;4937604;28;20027;-84
2022/08/01 12:50:27;;;;;;;7.88;1.60;;;;;;;;;;4936997;28;20114;-84
2022/08/01 12:52:53;;;;;;;7.97;1.80;;;;;;;;;;4953404;28;20038;-84
2022/08/01 12:55:20;;;;;;;10.65;1.92;;;;;;;;;;4937752;28;20023;-84
2022/08/01 12:57:51;;;;;;;5.25;1.73;;;;;;;;;;4939728;28;20084;-84
2022/08/01 13:00:23;;;;;;;8.32;1.92;;;;;;;;;;4969119;28;20023;-86
2022/08/01 13:02:50;;;;;;;8.95;2.10;;;;;;;;;;4951261;28;20031;-85
2022/08/01 13:05:16;;;;;;;10.63;1.80;;;;;;;;;;4932754;28;20047;-86
2022/08/01 13:07:47;;;;;;;7.72;1.70;;;;;;;;;;4954004;28;20510;-85
2022/08/01 13:10:13;;;;;;;6.95;1.80;;;;;;;;;;4914538;28;20034;-84
2022/08/01 13:12:39;;;;;;;7.78;1.80;;;;;;;;;;4953316;28;20093;-84
2022/08/01 13:15:31;;;;;;;9.88;2.40;;;;;;;;;;4954033;28;20023;-84
2022/08/01 13:17:58;;;;;;;7.83;1.87;;;;;;;;;;4966282;28;20057;-85
2022/08/01 13:20:32;;;;;;;8.73;2.05;;;;;;;;;;4953565;28;20569;-84
2022/08/01 13:23:14;;;;;;;7.10;1.73;;;;;;;;;;4953258;28;20046;-85
2022/08/01 13:25:50;;;;;;;12.73;2.00;;;;;;;;;;4941827;28;20027;-86
2022/08/01 13:28:18;;;;;;;6.40;1.98;;;;;;;;;;4953394;28;20097;-86
2022/08/01 13:30:59;;;;;;;7.38;1.80;;;;;;;;;;4936164;28;20483;-87
2022/08/01 13:33:26;;;;;;;6.32;1.52;;;;;;;;;;4893478;28;20055;-86
2022/08/01 13:35:52;;;;;;;7.55;1.52;;;;;;;;;;4899171;29;20039;-83
2022/08/01 13:38:18;;;;;;;3.47;1.30;;;;;;;;;;4915102;28;20045;-84
2022/08/01 13:40:43;;;;;;;8.50;1.70;;;;;;;;;;4922304;29;20134;-86
2022/08/01 13:43:09;;;;;;;9.98;1.80;;;;;;;;;;4940493;28;20042;-84
2022/08/01 13:45:34;;;;;;;3.72;1.40;;;;;;;;;;4910367;28;20129;-84
2022/08/01 13:48:00;;;;;;;7.18;2.22;;;;;;;;;;4938065;28;20047;-84
2022/08/01 13:50:25;;;;;;;10.18;2.00;;;;;;;;;;4922111;28;20114;-84
2022/08/01 13:52:50;;;;;;;5.78;1.92;;;;;;;;;;4923669;28;20210;-84
2022/08/01 13:55:16;;;;;;;4.22;1.38;;;;;;;;;;4940825;28;20114;-84
2022/08/01 13:57:41;;;;;;;6.75;1.73;;;;;;;;;;4903925;29;20465;-85
2022/08/01 14:00:08;;;;;;;5.68;1.80;;;;;;;;;;4927533;29;20050;-85
2022/08/01 14:02:34;;;;;;;6.95;1.70;;;;;;;;;;4926008;29;23168;-85
2022/08/01 14:04:59;;;;;;;6.97;2.03;;;;;;;;;;4912279;28;20492;-85
2022/08/01 14:07:24;;;;;;;6.85;1.35;;;;;;;;;;4926525;29;20047;-85
2022/08/01 14:09:50;;;;;;;12.10;1.80;;;;;;;;;;4895049;29;20050;-85
2022/08/01 14:12:15;;;;;;;5.57;1.60;;;;;;;;;;4927167;28;20039;-86
2022/08/01 14:14:41;;;;;;;5.78;1.67;;;;;;;;;;4910966;29;20038;-85
2022/08/01 14:17:06;;;;;;;9.15;1.63;;;;;;;;;;4928429;28;20495;-85
2022/08/01 14:19:31;;;;;;;6.40;1.77;;;;;;;;;;4931139;28;20341;-85
2022/08/01 14:21:57;;;;;;;4.53;1.20;;;;;;;;;;4947838;29;20063;-85
2022/08/01 14:24:23;;;;;;;5.32;1.63;;;;;;;;;;4911728;28;20059;-84
2022/08/01 14:26:49;;;;;;;8.25;1.33;;;;;;;;;;4930896;28;20131;-86
2022/08/01 14:29:14;;;;;;;7.82;1.42;;;;;;;;;;4938247;28;20098;-85
2022/08/01 14:31:39;;;;;;;4.75;1.30;;;;;;;;;;4926508;28;20054;-85
2022/08/01 14:34:05;;;;;;;5.13;1.42;;;;;;;;;;4940216;28;20054;-86
2022/08/01 14:36:30;;;;;;;7.18;1.10;;;;;;;;;;4944421;28;20369;-86
2022/08/01 14:38:55;;;;;;;8.98;1.77;;;;;;;;;;4913907;28;20057;-85
2022/08/01 14:41:21;;;;;;;6.20;1.55;;;;;;;;;;4945982;28;20047;-85
2022/08/01 14:43:46;;;;;;;5.20;1.73;;;;;;;;;;4910856;28;20418;-86
2022/08/01 14:46:14;;;;;;;5.85;1.45;;;;;;;;;;4906797;29;20100;-86
2022/08/01 14:48:39;;;;;;;5.13;1.55;;;;;;;;;;4918515;28;20030;-86
2022/08/01 14:51:06;;;;;;;6.80;1.70;;;;;;;;;;4910369;28;20491;-85
2022/08/01 14:53:32;;;;;;;5.25;1.42;;;;;;;;;;4922254;28;20035;-85
2022/08/01 14:55:57;;;;;;;8.35;1.60;;;;;;;;;;4923955;29;20059;-86
2022/08/01 14:58:23;;;;;;;5.57;1.45;;;;;;;;;;4925529;28;20114;-85
2022/08/01 15:00:48;;;;;;;5.80;1.60;;;;;;;;;;4923531;28;20042;-85
2022/08/01 15:03:14;;;;;;;6.20;1.42;;;;;;;;;;4910198;28;20065;-85
2022/08/01 15:05:39;;;;;;;6.38;1.30;;;;;;;;;;4910650;29;20063;-86
2022/08/01 15:08:05;;;;;;;6.30;1.30;;;;;;;;;;4922944;28;20063;-85
2022/08/01 15:10:31;;;;;;;4.35;1.35;;;;;;;;;;4915319;28;20035;-86
2022/08/01 15:12:59;;;;;;;6.85;1.45;;;;;;;;;;4921711;28;20612;-85
2022/08/01 15:15:25;;;;;;;4.78;1.52;;;;;;;;;;4935597;28;20082;-85